Minjerribah — VHLD — position and weather

sailwx.info

Track history (hours):
 
Tides and Currents Weather Stations Pressure Air Temp Water Temp Dewpoint Dewpoint Depression Visibility Wind Speed Wind Dir Waves Ship Positions

Minjerribah

Last reported at 2018-Jun-21 02:59 UTC. Time now 2018-Jun-21 02:58 UTC.
Position S 27°30' E 153°24'.

Length 68 m; draft 2 m.

Type: Passenger vessel. MMSI: 503709000.

Date/timePositionNaut miles runAvg speedWind from/ knotsBaromVisibWave heightAir tempDewpointWater temp
2018-Jun-21 02:59S 27°30' E 153°24'3 6.3
2018-Jun-21 02:30S 27°32' E 153°21'3 4.7
2018-Jun-21 01:47S 27°32' E 153°17'6 8.9
2018-Jun-21 01:09S 27°31' E 153°23'1 1.3
2018-Jun-21 00:39S 27°31' E 153°23'0 0.1
2018-Jun-20 22:36S 27°31' E 153°23'110.5
2018-Jun-20 22:30S 27°32' E 153°22'4 3.1
2018-Jun-20 21:11S 27°32' E 153°17'6 9.7
2018-Jun-20 20:36S 27°31' E 153°23'1 1.5
2018-Jun-20 20:02S 27°31' E 153°23'011.1
2018-Jun-20 19:59S 27°31' E 153°22'4 0.4
2018-Jun-20 08:15S 27°32' E 153°17'6 8.8
2018-Jun-20 07:36S 27°31' E 153°24'1 7.6
2018-Jun-20 07:30S 27°30' E 153°24'2 4.6
2018-Jun-20 07:00S 27°32' E 153°22'4 8.4
2018-Jun-20 06:30S 27°32' E 153°17'0 0.0
2018-Jun-20 06:00S 27°32' E 153°17'2 4.5
2018-Jun-20 05:28S 27°32' E 153°20'4 8.8
2018-Jun-20 04:59S 27°30' E 153°24'2 4.4
2018-Jun-20 04:30S 27°31' E 153°22'4 8.7
2018-Jun-20 03:59S 27°32' E 153°17'3 5.0
2018-Jun-20 03:26S 27°32' E 153°20'4 8.3
2018-Jun-20 02:59S 27°30' E 153°24'2 4.9
2018-Jun-20 02:30S 27°32' E 153°22'4 7.7
2018-Jun-20 01:57S 27°32' E 153°17'4 6.2
2018-Jun-20 01:23S 27°32' E 153°21'3 8.0
2018-Jun-20 01:00S 27°30' E 153°24'2 5.0
2018-Jun-20 00:30S 27°32' E 153°22'4 5.8
2018-Jun-19 23:49S 27°32' E 153°17'3 7.5
2018-Jun-19 23:25S 27°32' E 153°20'4 8.4
2018-Jun-19 23:00S 27°30' E 153°24'3 5.5
2018-Jun-19 22:30S 27°32' E 153°21'4 3.0
2018-Jun-19 21:17S 27°32' E 153°17'5 8.5
2018-Jun-19 20:38S 27°31' E 153°23'1 4.8
2018-Jun-19 20:25S 27°30' E 153°24'2 5.0
2018-Jun-19 20:00S 27°31' E 153°22'4 0.4
2018-Jun-19 08:20S 27°32' E 153°17'5 8.2
2018-Jun-19 07:40S 27°31' E 153°23'1 7.0
2018-Jun-19 07:30S 27°30' E 153°24'3 5.5
2018-Jun-19 07:00S 27°31' E 153°21'1 0.3
2018-Jun-19 05:19S 27°31' E 153°22'2 6.9
2018-Jun-19 05:00S 27°30' E 153°24'3 5.3
2018-Jun-19 04:28S 27°32' E 153°21'4 5.6
2018-Jun-19 03:49S 27°32' E 153°17'6 5.9
2018-Jun-19 02:45S 27°30' E 153°24'2 9.5
2018-Jun-19 02:30S 27°32' E 153°22'2 1.4
2018-Jun-19 00:47S 27°30' E 153°24'3 9.3
2018-Jun-19 00:30S 27°32' E 153°21'3 1.8
2018-Jun-18 23:03S 27°30' E 153°24'0 0.9
2018-Jun-18 23:00S 27°30' E 153°24'3 5.6
2018-Jun-18 22:30S 27°32' E 153°21'4 5.0
2018-Jun-18 21:45S 27°32' E 153°17'0 0.3
2018-Jun-18 21:24S 27°32' E 153°17'6 7.6
2018-Jun-18 20:39S 27°31' E 153°23'1 4.8
2018-Jun-18 20:29S 27°30' E 153°24'2 5.1
2018-Jun-18 20:00S 27°31' E 153°22'1 0.1
2018-Jun-18 07:09S 27°31' E 153°23'310.0
2018-Jun-18 06:52S 27°32' E 153°20'3 1.9
2018-Jun-18 05:08S 27°31' E 153°24'1 2.0
2018-Jun-18 04:33S 27°31' E 153°23'011.0
2018-Jun-18 04:30S 27°32' E 153°22'3 3.8
2018-Jun-18 03:37S 27°33' E 153°18'4 3.5
2018-Jun-18 02:33S 27°31' E 153°23'010.6
2018-Jun-18 02:30S 27°32' E 153°22'2 1.1
2018-Jun-18 01:06S 27°31' E 153°24'1 2.1
2018-Jun-18 00:37S 27°31' E 153°23'111.1
2018-Jun-18 00:29S 27°32' E 153°21'3 2.2
2018-Jun-17 23:05S 27°30' E 153°24'2 4.6
2018-Jun-17 22:40S 27°31' E 153°22'210.1
2018-Jun-17 22:29S 27°32' E 153°20'3 3.1
2018-Jun-17 21:35S 27°32' E 153°17'6 5.9
2018-Jun-17 20:30S 27°30' E 153°24'4 0.3
2018-Jun-17 07:57S 27°32' E 153°20'4 8.4
2018-Jun-17 07:30S 27°30' E 153°24'3 5.5
2018-Jun-17 06:56S 27°32' E 153°21'3 2.2
2018-Jun-17 05:43S 27°32' E 153°18'4 9.2
2018-Jun-17 05:19S 27°31' E 153°22'2 7.1
2018-Jun-17 05:00S 27°30' E 153°24'2 4.3
2018-Jun-17 04:30S 27°31' E 153°22'4 9.0
2018-Jun-17 04:00S 27°32' E 153°17'2 3.6
2018-Jun-17 03:30S 27°32' E 153°19'5 9.6
2018-Jun-17 03:00S 27°30' E 153°24'2 3.2
2018-Jun-17 02:30S 27°31' E 153°23'5 9.7
2018-Jun-17 02:00S 27°32' E 153°17'2 4.3
2018-Jun-17 01:30S 27°32' E 153°20'4 8.7
2018-Jun-17 01:00S 27°30' E 153°24'2 4.6
2018-Jun-17 00:30S 27°32' E 153°22'4 8.4
2018-Jun-17 00:00S 27°32' E 153°17'2 4.4
2018-Jun-16 23:30S 27°32' E 153°20'4 8.8
2018-Jun-16 23:00S 27°30' E 153°24'2 5.0
2018-Jun-16 22:30S 27°32' E 153°22'4 8.1
2018-Jun-16 22:00S 27°32' E 153°17'0 0.0
2018-Jun-16 21:27S 27°32' E 153°17'2 4.5
2018-Jun-16 21:00S 27°32' E 153°19'5 9.2
2018-Jun-16 20:30S 27°30' E 153°24'3 5.2
2018-Jun-16 20:00S 27°32' E 153°21'4 7.9
2018-Jun-16 19:30S 27°32' E 153°17'5 0.4
2018-Jun-16 07:06S 27°31' E 153°22'4 2.8
2018-Jun-16 05:40S 27°32' E 153°18'510.1
2018-Jun-16 05:11S 27°31' E 153°23'1 3.3
2018-Jun-16 04:50S 27°30' E 153°24'3 7.8
2018-Jun-16 04:30S 27°32' E 153°22'4 8.0
2018-Jun-16 04:00S 27°32' E 153°17'2 3.9
2018-Jun-16 03:30S 27°32' E 153°19'5 9.4
2018-Jun-16 03:00S 27°30' E 153°24'3 4.9
2018-Jun-16 02:29S 27°32' E 153°22'4 8.3
2018-Jun-16 02:00S 27°32' E 153°17'3 5.3
2018-Jun-16 01:22S 27°32' E 153°21'3 8.7
2018-Jun-16 01:00S 27°30' E 153°24'3 5.1
2018-Jun-16 00:30S 27°32' E 153°22'4 7.6
2018-Jun-15 23:58S 27°32' E 153°17'3 5.5
2018-Jun-15 23:26S 27°32' E 153°20'4 8.1
2018-Jun-15 23:00S 27°30' E 153°24'3 5.0
2018-Jun-15 22:29S 27°32' E 153°22'4 7.0
2018-Jun-15 21:55S 27°32' E 153°17'0 0.0
2018-Jun-15 21:28S 27°32' E 153°17'3 6.0
2018-Jun-15 20:58S 27°32' E 153°21'3 7.1
2018-Jun-15 20:29S 27°30' E 153°24'4 7.6
2018-Jun-15 19:59S 27°32' E 153°20'3 3.8
2018-Jun-15 19:15S 27°32' E 153°17'0 0.0
2018-Jun-15 19:00S 27°32' E 153°17'0 0.0
2018-Jun-15 10:54S 27°32' E 153°17'6 7.5
2018-Jun-15 10:08S 27°31' E 153°23'1 6.8
2018-Jun-15 10:00S 27°30' E 153°24'3 5.8
2018-Jun-15 09:30S 27°32' E 153°21'4 7.2
2018-Jun-15 09:00S 27°32' E 153°17'0 0.0
2018-Jun-15 08:30S 27°32' E 153°17'4 6.7
2018-Jun-15 07:58S 27°31' E 153°21'3 6.3
2018-Jun-15 07:30S 27°30' E 153°24'3 6.7
2018-Jun-15 07:00S 27°32' E 153°21'3 6.3
2018-Jun-15 06:30S 27°32' E 153°17'0 0.0
2018-Jun-15 06:00S 27°32' E 153°17'2 4.3
2018-Jun-15 05:30S 27°32' E 153°20'4 8.8
2018-Jun-15 05:00S 27°30' E 153°24'3 5.3
2018-Jun-15 04:30S 27°32' E 153°21'4 7.8
2018-Jun-15 04:00S 27°32' E 153°17'2 3.8
2018-Jun-15 03:30S 27°32' E 153°19'5 9.3
2018-Jun-15 03:00S 27°30' E 153°24'2 4.6
2018-Jun-15 02:31S 27°31' E 153°22'4 8.2
2018-Jun-15 02:00S 27°32' E 153°17'2 3.6
2018-Jun-15 01:30S 27°32' E 153°19'5 9.8
2018-Jun-15 01:00S 27°30' E 153°24'2 4.7
2018-Jun-15 00:30S 27°32' E 153°22'4 7.5
2018-Jun-14 23:57S 27°32' E 153°17'2 5.2
2018-Jun-14 23:30S 27°32' E 153°20'4 7.5
2018-Jun-14 22:56S 27°30' E 153°24'3 6.7
2018-Jun-14 22:30S 27°32' E 153°21'4 7.1
2018-Jun-14 22:00S 27°32' E 153°17'0 0.0
2018-Jun-14 21:30S 27°32' E 153°17'3 5.0
2018-Jun-14 20:55S 27°32' E 153°20'4 8.6
2018-Jun-14 20:30S 27°30' E 153°24'3 5.4
2018-Jun-14 20:00S 27°32' E 153°21'4 7.6
2018-Jun-14 19:30S 27°32' E 153°17'0 0.0
2018-Jun-14 08:30S 27°32' E 153°17'4 6.1
2018-Jun-14 07:56S 27°32' E 153°21'3 6.6
2018-Jun-14 07:29S 27°30' E 153°24'3 7.0
2018-Jun-14 07:00S 27°32' E 153°21'3 2.7
2018-Jun-14 05:52S 27°32' E 153°17'3 7.0
2018-Jun-14 05:28S 27°32' E 153°20'4 7.3
2018-Jun-14 04:58S 27°30' E 153°24'3 6.7
2018-Jun-14 04:30S 27°32' E 153°21'3 6.3
2018-Jun-14 03:58S 27°32' E 153°17'2 4.7
2018-Jun-14 03:30S 27°32' E 153°19'4 8.0
2018-Jun-14 02:57S 27°30' E 153°24'3 6.9
2018-Jun-14 02:31S 27°32' E 153°21'3 5.8
2018-Jun-14 01:55S 27°32' E 153°17'6 7.2
2018-Jun-14 01:09S 27°31' E 153°23'1 2.8
2018-Jun-14 00:48S 27°30' E 153°24'5 9.8
2018-Jun-14 00:20S 27°32' E 153°19'2 3.5
2018-Jun-13 23:48S 27°32' E 153°17'4 8.6
2018-Jun-13 23:18S 27°31' E 153°22'2 6.5
2018-Jun-13 22:58S 27°30' E 153°24'3 6.6
2018-Jun-13 22:30S 27°32' E 153°21'3 6.0
2018-Jun-13 21:56S 27°32' E 153°17'0 0.0
2018-Jun-13 21:30S 27°32' E 153°17'4 6.3
2018-Jun-13 20:52S 27°31' E 153°22'2 6.1
2018-Jun-13 20:28S 27°30' E 153°24'3 5.6
2018-Jun-13 20:00S 27°31' E 153°21'4 7.5
2018-Jun-13 19:29S 27°32' E 153°17'0 0.0
2018-Jun-13 08:23S 27°32' E 153°17'3 6.2
2018-Jun-13 07:58S 27°32' E 153°20'4 8.4
2018-Jun-13 07:30S 27°30' E 153°24'3 5.7
2018-Jun-13 07:00S 27°32' E 153°21'4 7.2
2018-Jun-13 06:30S 27°32' E 153°17'0 0.0
2018-Jun-13 05:57S 27°32' E 153°17'2 5.4
2018-Jun-13 05:30S 27°32' E 153°20'4 5.8
2018-Jun-13 04:49S 27°30' E 153°24'3 9.0
2018-Jun-13 04:29S 27°32' E 153°21'3 7.1
2018-Jun-13 04:00S 27°32' E 153°17'2 4.2
2018-Jun-13 03:30S 27°32' E 153°19'4 8.9
2018-Jun-13 03:00S 27°30' E 153°24'3 5.5
2018-Jun-13 02:30S 27°32' E 153°21'4 6.5
2018-Jun-13 01:56S 27°32' E 153°17'4 6.4
2018-Jun-13 01:18S 27°31' E 153°22'2 7.8
2018-Jun-13 00:59S 27°30' E 153°24'2 4.4
2018-Jun-13 00:30S 27°31' E 153°22'4 8.0
2018-Jun-12 23:57S 27°32' E 153°17'2 5.2
2018-Jun-12 23:30S 27°32' E 153°20'4 8.5
2018-Jun-12 23:00S 27°30' E 153°24'2 4.2
2018-Jun-12 22:30S 27°31' E 153°22'4 8.3
2018-Jun-12 21:58S 27°32' E 153°17'0 0.0
2018-Jun-12 21:29S 27°32' E 153°17'4 6.3
2018-Jun-12 20:53S 27°31' E 153°21'3 6.1
2018-Jun-12 20:27S 27°30' E 153°24'3 7.3
2018-Jun-12 20:00S 27°32' E 153°21'3 0.3
2018-Jun-12 08:19S 27°32' E 153°17'5 7.8
2018-Jun-12 07:45S 27°31' E 153°22'2 6.7
2018-Jun-12 07:26S 27°30' E 153°24'3 6.4
2018-Jun-12 06:58S 27°32' E 153°21'3 7.6
2018-Jun-12 06:30S 27°32' E 153°17'0 0.1
2018-Jun-12 06:00S 27°32' E 153°17'3 4.9
2018-Jun-12 05:28S 27°32' E 153°20'4 6.5
2018-Jun-12 04:53S 27°30' E 153°24'4 9.1
2018-Jun-12 04:29S 27°32' E 153°20'3 2.1
2018-Jun-12 03:09S 27°31' E 153°23'0 1.0
2018-Jun-12 02:40S 27°31' E 153°23'2 9.7
2018-Jun-12 02:30S 27°32' E 153°21'2 0.9
2018-Jun-12 00:36S 27°31' E 153°23'110.5
2018-Jun-12 00:30S 27°31' E 153°22'1 0.5
2018-Jun-11 22:35S 27°31' E 153°23'111.0
2018-Jun-11 22:30S 27°32' E 153°22'4 8.3
2018-Jun-11 21:58S 27°32' E 153°17'0 0.0
2018-Jun-11 21:30S 27°32' E 153°17'3 4.8
2018-Jun-11 20:55S 27°32' E 153°20'4 8.7
2018-Jun-11 20:30S 27°30' E 153°24'2 5.0
2018-Jun-11 20:00S 27°32' E 153°22'4 5.5
2018-Jun-11 19:15S 27°32' E 153°17'0 0.0
2018-Jun-11 18:58S 27°32' E 153°17'0 0.0
2018-Jun-11 08:16S 27°32' E 153°17'5 8.7
2018-Jun-11 07:39S 27°31' E 153°23'1 7.5
2018-Jun-11 07:30S 27°30' E 153°24'3 5.0
2018-Jun-11 06:59S 27°32' E 153°22'4 3.3
2018-Jun-11 05:48S 27°32' E 153°17'6 9.0
2018-Jun-11 05:08S 27°31' E 153°24'1 1.9
2018-Jun-11 04:44S 27°31' E 153°23'210.3
2018-Jun-11 04:30S 27°32' E 153°20'2 3.3
2018-Jun-11 03:47S 27°32' E 153°18'3 8.8
2018-Jun-11 03:29S 27°32' E 153°21'  
Track history (hours):
 
Tides and Currents Weather Stations Pressure Air Temp Water Temp Dewpoint Dewpoint Depression Visibility Wind Speed Wind Dir Waves Ship Positions

Minjerribah

Last reported at 2018-Jun-21 02:59 UTC. Time now 2018-Jun-21 02:58 UTC.
Position S 27°30' E 153°24'.

Length 68 m; draft 2 m.

Type: Passenger vessel. MMSI: 503709000.

Date/timePositionNaut miles runAvg speedWind from/ knotsBaromVisibWave heightAir tempDewpointWater temp
2018-Jun-21 02:59S 27°30' E 153°24'3 6.3
2018-Jun-21 02:30S 27°32' E 153°21'3 4.7
2018-Jun-21 01:47S 27°32' E 153°17'6 8.9
2018-Jun-21 01:09S 27°31' E 153°23'1 1.3
2018-Jun-21 00:39S 27°31' E 153°23'0 0.1
2018-Jun-20 22:36S 27°31' E 153°23'110.5
2018-Jun-20 22:30S 27°32' E 153°22'4 3.1
2018-Jun-20 21:11S 27°32' E 153°17'6 9.7
2018-Jun-20 20:36S 27°31' E 153°23'1 1.5
2018-Jun-20 20:02S 27°31' E 153°23'011.1
2018-Jun-20 19:59S 27°31' E 153°22'4 0.4
2018-Jun-20 08:15S 27°32' E 153°17'6 8.8
2018-Jun-20 07:36S 27°31' E 153°24'1 7.6
2018-Jun-20 07:30S 27°30' E 153°24'2 4.6
2018-Jun-20 07:00S 27°32' E 153°22'4 8.4
2018-Jun-20 06:30S 27°32' E 153°17'0 0.0
2018-Jun-20 06:00S 27°32' E 153°17'2 4.5
2018-Jun-20 05:28S 27°32' E 153°20'4 8.8
2018-Jun-20 04:59S 27°30' E 153°24'2 4.4
2018-Jun-20 04:30S 27°31' E 153°22'4 8.7
2018-Jun-20 03:59S 27°32' E 153°17'3 5.0
2018-Jun-20 03:26S 27°32' E 153°20'4 8.3
2018-Jun-20 02:59S 27°30' E 153°24'2 4.9
2018-Jun-20 02:30S 27°32' E 153°22'4 7.7
2018-Jun-20 01:57S 27°32' E 153°17'4 6.2
2018-Jun-20 01:23S 27°32' E 153°21'3 8.0
2018-Jun-20 01:00S 27°30' E 153°24'2 5.0
2018-Jun-20 00:30S 27°32' E 153°22'4 5.8
2018-Jun-19 23:49S 27°32' E 153°17'3 7.5
2018-Jun-19 23:25S 27°32' E 153°20'4 8.4
2018-Jun-19 23:00S 27°30' E 153°24'3 5.5
2018-Jun-19 22:30S 27°32' E 153°21'4 3.0
2018-Jun-19 21:17S 27°32' E 153°17'5 8.5
2018-Jun-19 20:38S 27°31' E 153°23'1 4.8
2018-Jun-19 20:25S 27°30' E 153°24'2 5.0
2018-Jun-19 20:00S 27°31' E 153°22'4 0.4
2018-Jun-19 08:20S 27°32' E 153°17'5 8.2
2018-Jun-19 07:40S 27°31' E 153°23'1 7.0
2018-Jun-19 07:30S 27°30' E 153°24'3 5.5
2018-Jun-19 07:00S 27°31' E 153°21'1 0.3
2018-Jun-19 05:19S 27°31' E 153°22'2 6.9
2018-Jun-19 05:00S 27°30' E 153°24'3 5.3
2018-Jun-19 04:28S 27°32' E 153°21'4 5.6
2018-Jun-19 03:49S 27°32' E 153°17'6 5.9
2018-Jun-19 02:45S 27°30' E 153°24'2 9.5
2018-Jun-19 02:30S 27°32' E 153°22'2 1.4
2018-Jun-19 00:47S 27°30' E 153°24'3 9.3
2018-Jun-19 00:30S 27°32' E 153°21'3 1.8
2018-Jun-18 23:03S 27°30' E 153°24'0 0.9
2018-Jun-18 23:00S 27°30' E 153°24'3 5.6
2018-Jun-18 22:30S 27°32' E 153°21'4 5.0
2018-Jun-18 21:45S 27°32' E 153°17'0 0.3
2018-Jun-18 21:24S 27°32' E 153°17'6 7.6
2018-Jun-18 20:39S 27°31' E 153°23'1 4.8
2018-Jun-18 20:29S 27°30' E 153°24'2 5.1
2018-Jun-18 20:00S 27°31' E 153°22'1 0.1
2018-Jun-18 07:09S 27°31' E 153°23'310.0
2018-Jun-18 06:52S 27°32' E 153°20'3 1.9
2018-Jun-18 05:08S 27°31' E 153°24'1 2.0
2018-Jun-18 04:33S 27°31' E 153°23'011.0
2018-Jun-18 04:30S 27°32' E 153°22'3 3.8
2018-Jun-18 03:37S 27°33' E 153°18'4 3.5
2018-Jun-18 02:33S 27°31' E 153°23'010.6
2018-Jun-18 02:30S 27°32' E 153°22'2 1.1
2018-Jun-18 01:06S 27°31' E 153°24'1 2.1
2018-Jun-18 00:37S 27°31' E 153°23'111.1
2018-Jun-18 00:29S 27°32' E 153°21'3 2.2
2018-Jun-17 23:05S 27°30' E 153°24'2 4.6
2018-Jun-17 22:40S 27°31' E 153°22'210.1
2018-Jun-17 22:29S 27°32' E 153°20'3 3.1
2018-Jun-17 21:35S 27°32' E 153°17'6 5.9
2018-Jun-17 20:30S 27°30' E 153°24'4 0.3
2018-Jun-17 07:57S 27°32' E 153°20'4 8.4
2018-Jun-17 07:30S 27°30' E 153°24'3 5.5
2018-Jun-17 06:56S 27°32' E 153°21'3 2.2
2018-Jun-17 05:43S 27°32' E 153°18'4 9.2
2018-Jun-17 05:19S 27°31' E 153°22'2 7.1
2018-Jun-17 05:00S 27°30' E 153°24'2 4.3
2018-Jun-17 04:30S 27°31' E 153°22'4 9.0
2018-Jun-17 04:00S 27°32' E 153°17'2 3.6
2018-Jun-17 03:30S 27°32' E 153°19'5 9.6
2018-Jun-17 03:00S 27°30' E 153°24'2 3.2
2018-Jun-17 02:30S 27°31' E 153°23'5 9.7
2018-Jun-17 02:00S 27°32' E 153°17'2 4.3
2018-Jun-17 01:30S 27°32' E 153°20'4 8.7
2018-Jun-17 01:00S 27°30' E 153°24'2 4.6
2018-Jun-17 00:30S 27°32' E 153°22'4 8.4
2018-Jun-17 00:00S 27°32' E 153°17'2 4.4
2018-Jun-16 23:30S 27°32' E 153°20'4 8.8
2018-Jun-16 23:00S 27°30' E 153°24'2 5.0
2018-Jun-16 22:30S 27°32' E 153°22'4 8.1
2018-Jun-16 22:00S 27°32' E 153°17'0 0.0
2018-Jun-16 21:27S 27°32' E 153°17'2 4.5
2018-Jun-16 21:00S 27°32' E 153°19'5 9.2
2018-Jun-16 20:30S 27°30' E 153°24'3 5.2
2018-Jun-16 20:00S 27°32' E 153°21'4 7.9
2018-Jun-16 19:30S 27°32' E 153°17'5 0.4
2018-Jun-16 07:06S 27°31' E 153°22'4 2.8
2018-Jun-16 05:40S 27°32' E 153°18'510.1
2018-Jun-16 05:11S 27°31' E 153°23'1 3.3
2018-Jun-16 04:50S 27°30' E 153°24'3 7.8
2018-Jun-16 04:30S 27°32' E 153°22'4 8.0
2018-Jun-16 04:00S 27°32' E 153°17'2 3.9
2018-Jun-16 03:30S 27°32' E 153°19'5 9.4
2018-Jun-16 03:00S 27°30' E 153°24'3 4.9
2018-Jun-16 02:29S 27°32' E 153°22'4 8.3
2018-Jun-16 02:00S 27°32' E 153°17'3 5.3
2018-Jun-16 01:22S 27°32' E 153°21'3 8.7
2018-Jun-16 01:00S 27°30' E 153°24'3 5.1
2018-Jun-16 00:30S 27°32' E 153°22'4 7.6
2018-Jun-15 23:58S 27°32' E 153°17'3 5.5
2018-Jun-15 23:26S 27°32' E 153°20'4 8.1
2018-Jun-15 23:00S 27°30' E 153°24'3 5.0
2018-Jun-15 22:29S 27°32' E 153°22'4 7.0
2018-Jun-15 21:55S 27°32' E 153°17'0 0.0
2018-Jun-15 21:28S 27°32' E 153°17'3 6.0
2018-Jun-15 20:58S 27°32' E 153°21'3 7.1
2018-Jun-15 20:29S 27°30' E 153°24'4 7.6
2018-Jun-15 19:59S 27°32' E 153°20'3 3.8
2018-Jun-15 19:15S 27°32' E 153°17'0 0.0
2018-Jun-15 19:00S 27°32' E 153°17'0 0.0
2018-Jun-15 10:54S 27°32' E 153°17'6 7.5
2018-Jun-15 10:08S 27°31' E 153°23'1 6.8
2018-Jun-15 10:00S 27°30' E 153°24'3 5.8
2018-Jun-15 09:30S 27°32' E 153°21'4 7.2
2018-Jun-15 09:00S 27°32' E 153°17'0 0.0
2018-Jun-15 08:30S 27°32' E 153°17'4 6.7
2018-Jun-15 07:58S 27°31' E 153°21'3 6.3
2018-Jun-15 07:30S 27°30' E 153°24'3 6.7
2018-Jun-15 07:00S 27°32' E 153°21'3 6.3
2018-Jun-15 06:30S 27°32' E 153°17'0 0.0
2018-Jun-15 06:00S 27°32' E 153°17'2 4.3
2018-Jun-15 05:30S 27°32' E 153°20'4 8.8
2018-Jun-15 05:00S 27°30' E 153°24'3 5.3
2018-Jun-15 04:30S 27°32' E 153°21'4 7.8
2018-Jun-15 04:00S 27°32' E 153°17'2 3.8
2018-Jun-15 03:30S 27°32' E 153°19'5 9.3
2018-Jun-15 03:00S 27°30' E 153°24'2 4.6
2018-Jun-15 02:31S 27°31' E 153°22'4 8.2
2018-Jun-15 02:00S 27°32' E 153°17'2 3.6
2018-Jun-15 01:30S 27°32' E 153°19'5 9.8
2018-Jun-15 01:00S 27°30' E 153°24'2 4.7
2018-Jun-15 00:30S 27°32' E 153°22'4 7.5
2018-Jun-14 23:57S 27°32' E 153°17'2 5.2
2018-Jun-14 23:30S 27°32' E 153°20'4 7.5
2018-Jun-14 22:56S 27°30' E 153°24'3 6.7
2018-Jun-14 22:30S 27°32' E 153°21'4 7.1
2018-Jun-14 22:00S 27°32' E 153°17'0 0.0
2018-Jun-14 21:30S 27°32' E 153°17'3 5.0
2018-Jun-14 20:55S 27°32' E 153°20'4 8.6
2018-Jun-14 20:30S 27°30' E 153°24'3 5.4
2018-Jun-14 20:00S 27°32' E 153°21'4 7.6
2018-Jun-14 19:30S 27°32' E 153°17'0 0.0
2018-Jun-14 08:30S 27°32' E 153°17'4 6.1
2018-Jun-14 07:56S 27°32' E 153°21'3 6.6
2018-Jun-14 07:29S 27°30' E 153°24'3 7.0
2018-Jun-14 07:00S 27°32' E 153°21'3 2.7
2018-Jun-14 05:52S 27°32' E 153°17'3 7.0
2018-Jun-14 05:28S 27°32' E 153°20'4 7.3
2018-Jun-14 04:58S 27°30' E 153°24'3 6.7
2018-Jun-14 04:30S 27°32' E 153°21'3 6.3
2018-Jun-14 03:58S 27°32' E 153°17'2 4.7
2018-Jun-14 03:30S 27°32' E 153°19'4 8.0
2018-Jun-14 02:57S 27°30' E 153°24'3 6.9
2018-Jun-14 02:31S 27°32' E 153°21'3 5.8
2018-Jun-14 01:55S 27°32' E 153°17'6 7.2
2018-Jun-14 01:09S 27°31' E 153°23'1 2.8
2018-Jun-14 00:48S 27°30' E 153°24'5 9.8
2018-Jun-14 00:20S 27°32' E 153°19'2 3.5
2018-Jun-13 23:48S 27°32' E 153°17'4 8.6
2018-Jun-13 23:18S 27°31' E 153°22'2 6.5
2018-Jun-13 22:58S 27°30' E 153°24'3 6.6
2018-Jun-13 22:30S 27°32' E 153°21'3 6.0
2018-Jun-13 21:56S 27°32' E 153°17'0 0.0
2018-Jun-13 21:30S 27°32' E 153°17'4 6.3
2018-Jun-13 20:52S 27°31' E 153°22'2 6.1
2018-Jun-13 20:28S 27°30' E 153°24'3 5.6
2018-Jun-13 20:00S 27°31' E 153°21'4 7.5
2018-Jun-13 19:29S 27°32' E 153°17'0 0.0
2018-Jun-13 08:23S 27°32' E 153°17'3 6.2
2018-Jun-13 07:58S 27°32' E 153°20'4 8.4
2018-Jun-13 07:30S 27°30' E 153°24'3 5.7
2018-Jun-13 07:00S 27°32' E 153°21'4 7.2
2018-Jun-13 06:30S 27°32' E 153°17'0 0.0
2018-Jun-13 05:57S 27°32' E 153°17'2 5.4
2018-Jun-13 05:30S 27°32' E 153°20'4 5.8
2018-Jun-13 04:49S 27°30' E 153°24'3 9.0
2018-Jun-13 04:29S 27°32' E 153°21'3 7.1
2018-Jun-13 04:00S 27°32' E 153°17'2 4.2
2018-Jun-13 03:30S 27°32' E 153°19'4 8.9
2018-Jun-13 03:00S 27°30' E 153°24'3 5.5
2018-Jun-13 02:30S 27°32' E 153°21'4 6.5
2018-Jun-13 01:56S 27°32' E 153°17'4 6.4
2018-Jun-13 01:18S 27°31' E 153°22'2 7.8
2018-Jun-13 00:59S 27°30' E 153°24'2 4.4
2018-Jun-13 00:30S 27°31' E 153°22'4 8.0
2018-Jun-12 23:57S 27°32' E 153°17'2 5.2
2018-Jun-12 23:30S 27°32' E 153°20'4 8.5
2018-Jun-12 23:00S 27°30' E 153°24'2 4.2
2018-Jun-12 22:30S 27°31' E 153°22'4 8.3
2018-Jun-12 21:58S 27°32' E 153°17'0 0.0
2018-Jun-12 21:29S 27°32' E 153°17'4 6.3
2018-Jun-12 20:53S 27°31' E 153°21'3 6.1
2018-Jun-12 20:27S 27°30' E 153°24'3 7.3
2018-Jun-12 20:00S 27°32' E 153°21'3 0.3
2018-Jun-12 08:19S 27°32' E 153°17'5 7.8
2018-Jun-12 07:45S 27°31' E 153°22'2 6.7
2018-Jun-12 07:26S 27°30' E 153°24'3 6.4
2018-Jun-12 06:58S 27°32' E 153°21'3 7.6
2018-Jun-12 06:30S 27°32' E 153°17'0 0.1
2018-Jun-12 06:00S 27°32' E 153°17'3 4.9
2018-Jun-12 05:28S 27°32' E 153°20'4 6.5
2018-Jun-12 04:53S 27°30' E 153°24'4 9.1
2018-Jun-12 04:29S 27°32' E 153°20'3 2.1
2018-Jun-12 03:09S 27°31' E 153°23'0 1.0
2018-Jun-12 02:40S 27°31' E 153°23'2 9.7
2018-Jun-12 02:30S 27°32' E 153°21'2 0.9
2018-Jun-12 00:36S 27°31' E 153°23'110.5
2018-Jun-12 00:30S 27°31' E 153°22'1 0.5
2018-Jun-11 22:35S 27°31' E 153°23'111.0
2018-Jun-11 22:30S 27°32' E 153°22'4 8.3
2018-Jun-11 21:58S 27°32' E 153°17'0 0.0
2018-Jun-11 21:30S 27°32' E 153°17'3 4.8
2018-Jun-11 20:55S 27°32' E 153°20'4 8.7
2018-Jun-11 20:30S 27°30' E 153°24'2 5.0
2018-Jun-11 20:00S 27°32' E 153°22'4 5.5
2018-Jun-11 19:15S 27°32' E 153°17'0 0.0
2018-Jun-11 18:58S 27°32' E 153°17'0 0.0
2018-Jun-11 08:16S 27°32' E 153°17'5 8.7
2018-Jun-11 07:39S 27°31' E 153°23'1 7.5
2018-Jun-11 07:30S 27°30' E 153°24'3 5.0
2018-Jun-11 06:59S 27°32' E 153°22'4 3.3
2018-Jun-11 05:48S 27°32' E 153°17'6 9.0
2018-Jun-11 05:08S 27°31' E 153°24'1 1.9
2018-Jun-11 04:44S 27°31' E 153°23'210.3
2018-Jun-11 04:30S 27°32' E 153°20'2 3.3
2018-Jun-11 03:47S 27°32' E 153°18'3 8.8
2018-Jun-11 03:29S 27°32' E 153°21'  

Dump ship's entire track history